sensor_id;sensor_type;location;lat;lon;timestamp;P1;durP1;ratioP1;P2;durP2;ratioP2
15132;SDS011;7667;51.232;17.110;2023-02-28T00:01:30;24.47;;;17.27;;
15132;SDS011;7667;51.232;17.110;2023-02-28T00:03:59;23.60;;;16.33;;
15132;SDS011;7667;51.232;17.110;2023-02-28T00:06:27;23.77;;;16.63;;
15132;SDS011;7667;51.232;17.110;2023-02-28T00:08:54;24.37;;;16.00;;
15132;SDS011;7667;51.232;17.110;2023-02-28T00:11:22;22.90;;;15.20;;
15132;SDS011;7667;51.232;17.110;2023-02-28T00:13:49;24.07;;;16.57;;
15132;SDS011;7667;51.232;17.110;2023-02-28T00:16:18;22.07;;;15.43;;
15132;SDS011;7667;51.232;17.110;2023-02-28T00:18:49;24.13;;;16.30;;
15132;SDS011;7667;51.232;17.110;2023-02-28T00:21:17;38.83;;;23.13;;
15132;SDS011;7667;51.232;17.110;2023-02-28T00:23:46;32.93;;;20.47;;
15132;SDS011;7667;51.232;17.110;2023-02-28T00:26:14;29.60;;;18.10;;
15132;SDS011;7667;51.232;17.110;2023-02-28T00:28:41;29.43;;;18.27;;
15132;SDS011;7667;51.232;17.110;2023-02-28T00:31:09;27.60;;;16.93;;
15132;SDS011;7667;51.232;17.110;2023-02-28T00:33:37;24.80;;;16.30;;
15132;SDS011;7667;51.232;17.110;2023-02-28T00:36:05;27.20;;;17.70;;
15132;SDS011;7667;51.232;17.110;2023-02-28T00:38:36;28.53;;;19.00;;
15132;SDS011;7667;51.232;17.110;2023-02-28T00:41:05;29.83;;;19.37;;
15132;SDS011;7667;51.232;17.110;2023-02-28T00:43:34;34.50;;;21.97;;
15132;SDS011;7667;51.232;17.110;2023-02-28T00:46:03;41.10;;;26.40;;
15132;SDS011;7667;51.232;17.110;2023-02-28T00:48:31;28.57;;;19.77;;
15132;SDS011;7667;51.232;17.110;2023-02-28T00:50:59;34.17;;;21.30;;
15132;SDS011;7667;51.232;17.110;2023-02-28T00:53:27;29.70;;;19.53;;
15132;SDS011;7667;51.232;17.110;2023-02-28T00:55:55;30.33;;;20.23;;
15132;SDS011;7667;51.232;17.110;2023-02-28T00:58:23;27.20;;;18.50;;
15132;SDS011;7667;51.232;17.110;2023-02-28T01:00:51;30.53;;;18.20;;
15132;SDS011;7667;51.232;17.110;2023-02-28T01:03:20;28.93;;;17.63;;
15132;SDS011;7667;51.232;17.110;2023-02-28T01:05:49;26.50;;;17.33;;
15132;SDS011;7667;51.232;17.110;2023-02-28T01:08:19;24.40;;;15.83;;
15132;SDS011;7667;51.232;17.110;2023-02-28T01:10:47;31.40;;;19.50;;
15132;SDS011;7667;51.232;17.110;2023-02-28T01:13:14;24.77;;;16.57;;
15132;SDS011;7667;51.232;17.110;2023-02-28T01:15:50;29.07;;;18.37;;
15132;SDS011;7667;51.232;17.110;2023-02-28T01:18:21;34.97;;;20.40;;
15132;SDS011;7667;51.232;17.110;2023-02-28T01:20:49;26.93;;;17.90;;
15132;SDS011;7667;51.232;17.110;2023-02-28T01:23:19;20.37;;;13.63;;
15132;SDS011;7667;51.232;17.110;2023-02-28T01:25:50;34.70;;;21.67;;
15132;SDS011;7667;51.232;17.110;2023-02-28T01:28:18;29.40;;;19.23;;
15132;SDS011;7667;51.232;17.110;2023-02-28T01:30:49;28.40;;;17.93;;
15132;SDS011;7667;51.232;17.110;2023-02-28T01:33:18;25.03;;;16.80;;
15132;SDS011;7667;51.232;17.110;2023-02-28T01:35:45;24.20;;;16.10;;
15132;SDS011;7667;51.232;17.110;2023-02-28T01:38:13;21.33;;;14.17;;
15132;SDS011;7667;51.232;17.110;2023-02-28T01:40:48;22.40;;;14.10;;
15132;SDS011;7667;51.232;17.110;2023-02-28T01:43:20;26.50;;;17.27;;
15132;SDS011;7667;51.232;17.110;2023-02-28T01:45:50;41.40;;;24.57;;
15132;SDS011;7667;51.232;17.110;2023-02-28T01:48:31;52.83;;;30.70;;
15132;SDS011;7667;51.232;17.110;2023-02-28T01:51:04;35.97;;;21.63;;
15132;SDS011;7667;51.232;17.110;2023-02-28T01:53:48;48.87;;;26.90;;
15132;SDS011;7667;51.232;17.110;2023-02-28T01:56:23;40.33;;;21.63;;
15132;SDS011;7667;51.232;17.110;2023-02-28T01:58:54;32.37;;;18.43;;
15132;SDS011;7667;51.232;17.110;2023-02-28T02:01:23;43.73;;;23.47;;
15132;SDS011;7667;51.232;17.110;2023-02-28T02:03:54;51.13;;;27.50;;
15132;SDS011;7667;51.232;17.110;2023-02-28T02:06:30;52.97;;;27.03;;
15132;SDS011;7667;51.232;17.110;2023-02-28T02:09:09;34.20;;;20.47;;
15132;SDS011;7667;51.232;17.110;2023-02-28T02:11:39;27.47;;;18.40;;
15132;SDS011;7667;51.232;17.110;2023-02-28T02:17:25;21.73;;;15.20;;
15132;SDS011;7667;51.232;17.110;2023-02-28T02:26:44;11.60;;;8.40;;
15132;SDS011;7667;51.232;17.110;2023-02-28T02:38:42;15.07;;;10.10;;
15132;SDS011;7667;51.232;17.110;2023-02-28T02:41:34;18.90;;;12.97;;
15132;SDS011;7667;51.232;17.110;2023-02-28T02:44:11;19.50;;;13.50;;
15132;SDS011;7667;51.232;17.110;2023-02-28T02:46:54;17.23;;;11.63;;
15132;SDS011;7667;51.232;17.110;2023-02-28T02:49:38;14.27;;;10.73;;
15132;SDS011;7667;51.232;17.110;2023-02-28T02:52:13;11.27;;;8.23;;
15132;SDS011;7667;51.232;17.110;2023-02-28T02:54:45;10.17;;;7.57;;
15132;SDS011;7667;51.232;17.110;2023-02-28T02:57:17;13.03;;;7.90;;
15132;SDS011;7667;51.232;17.110;2023-02-28T02:59:52;8.77;;;6.53;;
15132;SDS011;7667;51.232;17.110;2023-02-28T03:02:21;10.23;;;6.90;;
15132;SDS011;7667;51.232;17.110;2023-02-28T03:04:52;11.60;;;7.93;;
15132;SDS011;7667;51.232;17.110;2023-02-28T03:07:27;11.37;;;7.67;;
15132;SDS011;7667;51.232;17.110;2023-02-28T03:09:55;9.17;;;6.73;;
15132;SDS011;7667;51.232;17.110;2023-02-28T03:12:27;10.67;;;6.23;;
15132;SDS011;7667;51.232;17.110;2023-02-28T03:15:09;5.93;;;5.10;;
15132;SDS011;7667;51.232;17.110;2023-02-28T03:18:37;6.77;;;5.60;;
15132;SDS011;7667;51.232;17.110;2023-02-28T03:21:36;6.20;;;5.30;;
15132;SDS011;7667;51.232;17.110;2023-02-28T03:24:21;6.97;;;5.30;;
15132;SDS011;7667;51.232;17.110;2023-02-28T03:29:51;8.03;;;6.87;;
15132;SDS011;7667;51.232;17.110;2023-02-28T03:32:34;6.77;;;5.60;;
15132;SDS011;7667;51.232;17.110;2023-02-28T03:35:16;9.10;;;6.20;;
15132;SDS011;7667;51.232;17.110;2023-02-28T03:37:53;10.07;;;6.30;;
15132;SDS011;7667;51.232;17.110;2023-02-28T03:40:30;8.73;;;6.40;;
15132;SDS011;7667;51.232;17.110;2023-02-28T03:43:02;8.37;;;6.13;;
15132;SDS011;7667;51.232;17.110;2023-02-28T03:45:36;7.70;;;5.73;;
15132;SDS011;7667;51.232;17.110;2023-02-28T03:48:29;10.53;;;6.63;;
15132;SDS011;7667;51.232;17.110;2023-02-28T03:51:02;11.10;;;7.80;;
15132;SDS011;7667;51.232;17.110;2023-02-28T03:53:44;10.53;;;6.93;;
15132;SDS011;7667;51.232;17.110;2023-02-28T03:56:19;9.93;;;7.23;;
15132;SDS011;7667;51.232;17.110;2023-02-28T04:01:38;10.83;;;7.47;;
15132;SDS011;7667;51.232;17.110;2023-02-28T04:04:09;9.77;;;7.40;;
15132;SDS011;7667;51.232;17.110;2023-02-28T04:06:38;11.73;;;8.27;;
15132;SDS011;7667;51.232;17.110;2023-02-28T04:09:07;10.47;;;8.33;;
15132;SDS011;7667;51.232;17.110;2023-02-28T04:11:37;11.33;;;8.50;;
15132;SDS011;7667;51.232;17.110;2023-02-28T04:14:11;13.90;;;10.70;;
15132;SDS011;7667;51.232;17.110;2023-02-28T04:16:39;12.53;;;8.70;;
15132;SDS011;7667;51.232;17.110;2023-02-28T04:19:09;12.20;;;9.27;;
15132;SDS011;7667;51.232;17.110;2023-02-28T04:21:40;12.97;;;9.70;;
15132;SDS011;7667;51.232;17.110;2023-02-28T04:24:20;13.87;;;9.90;;
15132;SDS011;7667;51.232;17.110;2023-02-28T04:26:55;10.70;;;8.00;;
15132;SDS011;7667;51.232;17.110;2023-02-28T04:29:28;20.70;;;15.40;;
15132;SDS011;7667;51.232;17.110;2023-02-28T04:31:58;23.17;;;16.37;;
15132;SDS011;7667;51.232;17.110;2023-02-28T04:34:30;21.27;;;15.70;;
15132;SDS011;7667;51.232;17.110;2023-02-28T04:36:59;25.67;;;17.63;;
15132;SDS011;7667;51.232;17.110;2023-02-28T04:39:38;20.90;;;15.47;;
15132;SDS011;7667;51.232;17.110;2023-02-28T04:42:06;20.17;;;14.70;;
15132;SDS011;7667;51.232;17.110;2023-02-28T04:44:34;16.23;;;12.07;;
15132;SDS011;7667;51.232;17.110;2023-02-28T04:47:02;11.77;;;8.57;;
15132;SDS011;7667;51.232;17.110;2023-02-28T04:49:29;10.33;;;8.23;;
15132;SDS011;7667;51.232;17.110;2023-02-28T04:51:57;12.77;;;9.30;;
15132;SDS011;7667;51.232;17.110;2023-02-28T04:54:25;17.07;;;12.67;;
15132;SDS011;7667;51.232;17.110;2023-02-28T04:56:52;19.50;;;14.03;;
15132;SDS011;7667;51.232;17.110;2023-02-28T04:59:21;29.53;;;16.97;;
15132;SDS011;7667;51.232;17.110;2023-02-28T05:01:48;31.37;;;20.07;;
15132;SDS011;7667;51.232;17.110;2023-02-28T05:04:16;24.17;;;17.10;;
15132;SDS011;7667;51.232;17.110;2023-02-28T05:06:44;25.40;;;16.93;;
15132;SDS011;7667;51.232;17.110;2023-02-28T05:09:11;25.73;;;17.83;;
15132;SDS011;7667;51.232;17.110;2023-02-28T05:11:39;28.00;;;18.83;;
15132;SDS011;7667;51.232;17.110;2023-02-28T05:14:11;25.77;;;17.73;;
15132;SDS011;7667;51.232;17.110;2023-02-28T05:16:40;28.43;;;17.93;;
15132;SDS011;7667;51.232;17.110;2023-02-28T05:19:08;29.70;;;19.33;;
15132;SDS011;7667;51.232;17.110;2023-02-28T05:21:37;31.87;;;21.10;;
15132;SDS011;7667;51.232;17.110;2023-02-28T05:24:11;34.53;;;21.57;;
15132;SDS011;7667;51.232;17.110;2023-02-28T05:26:42;41.73;;;24.20;;
15132;SDS011;7667;51.232;17.110;2023-02-28T05:29:09;64.77;;;34.33;;
15132;SDS011;7667;51.232;17.110;2023-02-28T05:31:37;64.13;;;32.43;;
15132;SDS011;7667;51.232;17.110;2023-02-28T05:34:05;86.27;;;42.13;;
15132;SDS011;7667;51.232;17.110;2023-02-28T05:36:33;69.33;;;32.47;;
15132;SDS011;7667;51.232;17.110;2023-02-28T05:39:04;80.27;;;38.30;;
15132;SDS011;7667;51.232;17.110;2023-02-28T05:41:34;85.17;;;40.30;;
15132;SDS011;7667;51.232;17.110;2023-02-28T05:44:01;74.57;;;36.97;;
15132;SDS011;7667;51.232;17.110;2023-02-28T05:46:29;86.27;;;40.77;;
15132;SDS011;7667;51.232;17.110;2023-02-28T05:48:56;102.53;;;42.70;;
15132;SDS011;7667;51.232;17.110;2023-02-28T05:51:26;65.07;;;32.10;;
15132;SDS011;7667;51.232;17.110;2023-02-28T05:53:57;75.97;;;47.43;;
15132;SDS011;7667;51.232;17.110;2023-02-28T05:56:27;63.33;;;34.30;;
15132;SDS011;7667;51.232;17.110;2023-02-28T05:58:55;60.83;;;32.40;;
15132;SDS011;7667;51.232;17.110;2023-02-28T06:01:33;59.03;;;35.53;;
15132;SDS011;7667;51.232;17.110;2023-02-28T06:04:09;53.07;;;33.43;;
15132;SDS011;7667;51.232;17.110;2023-02-28T06:06:54;52.77;;;29.67;;
15132;SDS011;7667;51.232;17.110;2023-02-28T06:09:24;52.70;;;27.07;;
15132;SDS011;7667;51.232;17.110;2023-02-28T06:11:51;32.37;;;19.57;;
15132;SDS011;7667;51.232;17.110;2023-02-28T06:14:19;31.43;;;19.17;;
15132;SDS011;7667;51.232;17.110;2023-02-28T06:16:47;34.50;;;20.20;;
15132;SDS011;7667;51.232;17.110;2023-02-28T06:19:15;31.73;;;19.57;;
15132;SDS011;7667;51.232;17.110;2023-02-28T06:21:43;28.67;;;18.10;;
15132;SDS011;7667;51.232;17.110;2023-02-28T06:24:11;27.03;;;18.23;;
15132;SDS011;7667;51.232;17.110;2023-02-28T06:26:38;31.63;;;18.03;;
15132;SDS011;7667;51.232;17.110;2023-02-28T06:29:06;29.73;;;19.07;;
15132;SDS011;7667;51.232;17.110;2023-02-28T06:31:34;41.00;;;22.00;;
15132;SDS011;7667;51.232;17.110;2023-02-28T06:34:01;37.43;;;23.53;;
15132;SDS011;7667;51.232;17.110;2023-02-28T06:36:29;48.03;;;29.03;;
15132;SDS011;7667;51.232;17.110;2023-02-28T06:38:57;45.53;;;30.03;;
15132;SDS011;7667;51.232;17.110;2023-02-28T06:41:24;46.87;;;30.43;;
15132;SDS011;7667;51.232;17.110;2023-02-28T06:43:54;42.17;;;26.27;;
15132;SDS011;7667;51.232;17.110;2023-02-28T06:46:22;41.40;;;24.73;;
15132;SDS011;7667;51.232;17.110;2023-02-28T06:48:50;38.77;;;22.30;;
15132;SDS011;7667;51.232;17.110;2023-02-28T06:51:18;35.67;;;23.50;;
15132;SDS011;7667;51.232;17.110;2023-02-28T06:53:48;33.53;;;21.13;;
15132;SDS011;7667;51.232;17.110;2023-02-28T06:56:17;34.17;;;22.53;;
15132;SDS011;7667;51.232;17.110;2023-02-28T06:58:47;34.90;;;22.00;;
15132;SDS011;7667;51.232;17.110;2023-02-28T07:01:17;33.73;;;21.93;;
15132;SDS011;7667;51.232;17.110;2023-02-28T07:03:45;33.10;;;23.60;;
15132;SDS011;7667;51.232;17.110;2023-02-28T07:06:13;30.30;;;20.10;;
15132;SDS011;7667;51.232;17.110;2023-02-28T07:08:40;31.63;;;22.33;;
15132;SDS011;7667;51.232;17.110;2023-02-28T07:11:08;35.63;;;22.67;;
15132;SDS011;7667;51.232;17.110;2023-02-28T07:13:36;42.37;;;31.23;;
15132;SDS011;7667;51.232;17.110;2023-02-28T07:16:05;33.23;;;23.73;;
15132;SDS011;7667;51.232;17.110;2023-02-28T07:18:35;33.23;;;23.27;;
15132;SDS011;7667;51.232;17.110;2023-02-28T07:21:04;27.50;;;18.97;;
15132;SDS011;7667;51.232;17.110;2023-02-28T07:23:35;23.97;;;16.93;;
15132;SDS011;7667;51.232;17.110;2023-02-28T07:26:10;25.17;;;16.43;;
15132;SDS011;7667;51.232;17.110;2023-02-28T07:28:44;24.63;;;17.10;;
15132;SDS011;7667;51.232;17.110;2023-02-28T07:31:14;13.33;;;9.67;;
15132;SDS011;7667;51.232;17.110;2023-02-28T07:33:43;10.50;;;8.60;;
15132;SDS011;7667;51.232;17.110;2023-02-28T07:36:14;10.93;;;8.20;;
15132;SDS011;7667;51.232;17.110;2023-02-28T07:38:46;10.93;;;8.30;;
15132;SDS011;7667;51.232;17.110;2023-02-28T07:41:17;13.07;;;9.57;;
15132;SDS011;7667;51.232;17.110;2023-02-28T07:43:47;16.53;;;10.93;;
15132;SDS011;7667;51.232;17.110;2023-02-28T07:46:15;11.93;;;9.07;;
15132;SDS011;7667;51.232;17.110;2023-02-28T07:48:44;14.23;;;9.50;;
15132;SDS011;7667;51.232;17.110;2023-02-28T07:51:12;15.37;;;11.03;;
15132;SDS011;7667;51.232;17.110;2023-02-28T07:53:39;16.57;;;10.93;;
15132;SDS011;7667;51.232;17.110;2023-02-28T07:56:07;19.80;;;11.80;;
15132;SDS011;7667;51.232;17.110;2023-02-28T07:58:35;15.87;;;11.40;;
15132;SDS011;7667;51.232;17.110;2023-02-28T08:01:09;15.20;;;11.00;;
15132;SDS011;7667;51.232;17.110;2023-02-28T08:03:38;16.27;;;11.40;;
15132;SDS011;7667;51.232;17.110;2023-02-28T08:06:07;17.37;;;11.47;;
15132;SDS011;7667;51.232;17.110;2023-02-28T08:08:45;14.77;;;10.77;;
15132;SDS011;7667;51.232;17.110;2023-02-28T08:11:13;13.77;;;10.80;;
15132;SDS011;7667;51.232;17.110;2023-02-28T08:13:42;14.63;;;10.27;;
15132;SDS011;7667;51.232;17.110;2023-02-28T08:16:11;12.20;;;9.27;;
15132;SDS011;7667;51.232;17.110;2023-02-28T08:18:44;12.63;;;10.10;;
15132;SDS011;7667;51.232;17.110;2023-02-28T08:21:11;13.07;;;10.67;;
15132;SDS011;7667;51.232;17.110;2023-02-28T08:23:39;15.00;;;10.50;;
15132;SDS011;7667;51.232;17.110;2023-02-28T08:26:06;15.43;;;10.20;;
15132;SDS011;7667;51.232;17.110;2023-02-28T08:28:34;12.73;;;9.97;;
15132;SDS011;7667;51.232;17.110;2023-02-28T08:31:06;15.03;;;10.37;;
15132;SDS011;7667;51.232;17.110;2023-02-28T08:33:36;13.00;;;9.77;;
15132;SDS011;7667;51.232;17.110;2023-02-28T08:36:06;14.80;;;10.30;;
15132;SDS011;7667;51.232;17.110;2023-02-28T08:38:35;13.70;;;9.83;;
15132;SDS011;7667;51.232;17.110;2023-02-28T08:41:04;14.13;;;11.10;;
15132;SDS011;7667;51.232;17.110;2023-02-28T08:43:35;12.20;;;9.73;;
15132;SDS011;7667;51.232;17.110;2023-02-28T08:46:03;13.63;;;9.40;;
15132;SDS011;7667;51.232;17.110;2023-02-28T08:48:32;11.53;;;8.70;;
15132;SDS011;7667;51.232;17.110;2023-02-28T08:51:03;12.80;;;9.50;;
15132;SDS011;7667;51.232;17.110;2023-02-28T08:53:36;12.80;;;9.70;;
15132;SDS011;7667;51.232;17.110;2023-02-28T08:56:09;10.13;;;7.43;;
15132;SDS011;7667;51.232;17.110;2023-02-28T08:58:39;10.90;;;7.67;;
15132;SDS011;7667;51.232;17.110;2023-02-28T09:01:09;9.23;;;6.27;;
15132;SDS011;7667;51.232;17.110;2023-02-28T09:03:48;9.23;;;7.07;;
15132;SDS011;7667;51.232;17.110;2023-02-28T09:06:19;10.03;;;7.70;;
15132;SDS011;7667;51.232;17.110;2023-02-28T09:08:49;8.80;;;7.30;;
15132;SDS011;7667;51.232;17.110;2023-02-28T09:11:17;10.27;;;7.63;;
15132;SDS011;7667;51.232;17.110;2023-02-28T09:13:46;9.50;;;6.07;;
15132;SDS011;7667;51.232;17.110;2023-02-28T09:16:14;9.40;;;5.10;;
15132;SDS011;7667;51.232;17.110;2023-02-28T09:18:43;7.77;;;5.07;;
15132;SDS011;7667;51.232;17.110;2023-02-28T09:21:12;8.83;;;6.17;;
15132;SDS011;7667;51.232;17.110;2023-02-28T09:23:43;8.17;;;5.87;;
15132;SDS011;7667;51.232;17.110;2023-02-28T09:26:17;10.37;;;6.63;;
15132;SDS011;7667;51.232;17.110;2023-02-28T09:29:04;8.97;;;5.87;;
15132;SDS011;7667;51.232;17.110;2023-02-28T09:31:31;7.60;;;6.00;;
15132;SDS011;7667;51.232;17.110;2023-02-28T09:33:59;7.70;;;5.53;;
15132;SDS011;7667;51.232;17.110;2023-02-28T09:36:27;8.87;;;6.10;;
15132;SDS011;7667;51.232;17.110;2023-02-28T09:39:09;9.30;;;5.87;;
15132;SDS011;7667;51.232;17.110;2023-02-28T09:41:39;7.70;;;5.50;;
15132;SDS011;7667;51.232;17.110;2023-02-28T09:44:20;8.30;;;5.70;;
15132;SDS011;7667;51.232;17.110;2023-02-28T09:46:54;8.33;;;5.80;;
15132;SDS011;7667;51.232;17.110;2023-02-28T09:49:48;7.83;;;6.20;;
15132;SDS011;7667;51.232;17.110;2023-02-28T09:52:18;8.17;;;5.73;;
15132;SDS011;7667;51.232;17.110;2023-02-28T09:54:49;9.83;;;7.07;;
15132;SDS011;7667;51.232;17.110;2023-02-28T10:00:21;10.40;;;6.90;;
15132;SDS011;7667;51.232;17.110;2023-02-28T10:03:08;10.30;;;7.57;;
15132;SDS011;7667;51.232;17.110;2023-02-28T10:05:54;12.63;;;8.87;;
15132;SDS011;7667;51.232;17.110;2023-02-28T10:08:34;12.57;;;9.03;;
15132;SDS011;7667;51.232;17.110;2023-02-28T10:11:12;13.33;;;8.37;;
15132;SDS011;7667;51.232;17.110;2023-02-28T10:19:27;13.83;;;8.97;;
15132;SDS011;7667;51.232;17.110;2023-02-28T10:22:16;12.20;;;8.90;;
15132;SDS011;7667;51.232;17.110;2023-02-28T10:24:50;12.27;;;8.40;;
15132;SDS011;7667;51.232;17.110;2023-02-28T10:27:24;12.70;;;8.47;;
15132;SDS011;7667;51.232;17.110;2023-02-28T10:29:58;12.27;;;8.23;;
15132;SDS011;7667;51.232;17.110;2023-02-28T10:32:29;12.83;;;7.83;;
15132;SDS011;7667;51.232;17.110;2023-02-28T10:37:39;14.10;;;8.40;;
15132;SDS011;7667;51.232;17.110;2023-02-28T10:43:05;10.97;;;6.90;;
15132;SDS011;7667;51.232;17.110;2023-02-28T10:48:30;13.70;;;8.27;;
15132;SDS011;7667;51.232;17.110;2023-02-28T10:50:59;11.63;;;7.63;;
15132;SDS011;7667;51.232;17.110;2023-02-28T10:53:30;10.17;;;7.00;;
15132;SDS011;7667;51.232;17.110;2023-02-28T10:56:25;10.50;;;7.30;;
15132;SDS011;7667;51.232;17.110;2023-02-28T10:59:01;9.10;;;6.60;;
15132;SDS011;7667;51.232;17.110;2023-02-28T11:01:41;9.70;;;6.70;;
15132;SDS011;7667;51.232;17.110;2023-02-28T11:06:56;14.70;;;9.37;;
15132;SDS011;7667;51.232;17.110;2023-02-28T11:09:33;18.43;;;7.83;;
15132;SDS011;7667;51.232;17.110;2023-02-28T11:12:06;14.43;;;9.17;;
15132;SDS011;7667;51.232;17.110;2023-02-28T11:14:48;10.47;;;7.03;;
15132;SDS011;7667;51.232;17.110;2023-02-28T11:17:31;9.73;;;6.80;;
15132;SDS011;7667;51.232;17.110;2023-02-28T11:20:04;9.47;;;6.50;;
15132;SDS011;7667;51.232;17.110;2023-02-28T11:22:35;11.43;;;6.47;;
15132;SDS011;7667;51.232;17.110;2023-02-28T11:25:16;8.27;;;5.90;;
15132;SDS011;7667;51.232;17.110;2023-02-28T11:27:57;10.33;;;5.77;;
15132;SDS011;7667;51.232;17.110;2023-02-28T11:30:36;8.80;;;5.97;;
15132;SDS011;7667;51.232;17.110;2023-02-28T11:35:50;8.40;;;5.90;;
15132;SDS011;7667;51.232;17.110;2023-02-28T11:38:19;13.30;;;6.60;;
15132;SDS011;7667;51.232;17.110;2023-02-28T11:41:01;8.87;;;6.10;;
15132;SDS011;7667;51.232;17.110;2023-02-28T11:44:21;11.43;;;6.90;;
15132;SDS011;7667;51.232;17.110;2023-02-28T11:47:26;8.67;;;5.87;;
15132;SDS011;7667;51.232;17.110;2023-02-28T11:53:22;8.77;;;6.27;;
15132;SDS011;7667;51.232;17.110;2023-02-28T12:02:17;11.10;;;7.33;;
15132;SDS011;7667;51.232;17.110;2023-02-28T12:05:22;9.73;;;6.60;;
15132;SDS011;7667;51.232;17.110;2023-02-28T12:08:12;19.17;;;12.30;;
15132;SDS011;7667;51.232;17.110;2023-02-28T12:11:24;10.93;;;7.63;;
15132;SDS011;7667;51.232;17.110;2023-02-28T12:19:54;11.23;;;6.77;;
15132;SDS011;7667;51.232;17.110;2023-02-28T12:28:14;9.53;;;5.97;;
15132;SDS011;7667;51.232;17.110;2023-02-28T12:30:53;9.40;;;6.87;;
15132;SDS011;7667;51.232;17.110;2023-02-28T12:33:29;9.60;;;7.33;;
15132;SDS011;7667;51.232;17.110;2023-02-28T12:36:10;8.80;;;6.33;;
15132;SDS011;7667;51.232;17.110;2023-02-28T12:38:45;8.57;;;6.50;;
15132;SDS011;7667;51.232;17.110;2023-02-28T12:41:25;8.70;;;6.17;;
15132;SDS011;7667;51.232;17.110;2023-02-28T12:44:17;9.20;;;6.50;;
15132;SDS011;7667;51.232;17.110;2023-02-28T12:46:57;8.87;;;6.33;;
15132;SDS011;7667;51.232;17.110;2023-02-28T12:49:33;9.40;;;6.27;;
15132;SDS011;7667;51.232;17.110;2023-02-28T12:52:08;11.97;;;8.43;;
15132;SDS011;7667;51.232;17.110;2023-02-28T12:54:43;8.77;;;6.23;;
15132;SDS011;7667;51.232;17.110;2023-02-28T12:57:56;9.50;;;6.43;;
15132;SDS011;7667;51.232;17.110;2023-02-28T13:00:25;9.97;;;6.33;;
15132;SDS011;7667;51.232;17.110;2023-02-28T13:05:50;9.53;;;6.20;;
15132;SDS011;7667;51.232;17.110;2023-02-28T13:11:34;10.47;;;6.80;;
15132;SDS011;7667;51.232;17.110;2023-02-28T13:19:43;14.87;;;10.60;;
15132;SDS011;7667;51.232;17.110;2023-02-28T13:28:00;9.57;;;7.70;;
15132;SDS011;7667;51.232;17.110;2023-02-28T13:36:22;9.60;;;6.63;;
15132;SDS011;7667;51.232;17.110;2023-02-28T13:38:56;18.90;;;9.67;;
15132;SDS011;7667;51.232;17.110;2023-02-28T13:43:59;10.70;;;7.33;;
15132;SDS011;7667;51.232;17.110;2023-02-28T14:00:16;8.20;;;5.90;;
15132;SDS011;7667;51.232;17.110;2023-02-28T14:06:15;7.70;;;5.80;;
15132;SDS011;7667;51.232;17.110;2023-02-28T14:15:28;7.13;;;5.43;;
15132;SDS011;7667;51.232;17.110;2023-02-28T14:18:12;14.80;;;7.83;;
15132;SDS011;7667;51.232;17.110;2023-02-28T14:20:47;7.53;;;5.67;;
15132;SDS011;7667;51.232;17.110;2023-02-28T14:36:16;9.77;;;7.20;;
15132;SDS011;7667;51.232;17.110;2023-02-28T14:39:16;8.83;;;5.70;;
15132;SDS011;7667;51.232;17.110;2023-02-28T14:41:49;10.70;;;7.40;;
15132;SDS011;7667;51.232;17.110;2023-02-28T14:44:19;11.13;;;6.27;;
15132;SDS011;7667;51.232;17.110;2023-02-28T14:46:54;8.13;;;5.10;;
15132;SDS011;7667;51.232;17.110;2023-02-28T14:50:04;9.77;;;5.90;;
15132;SDS011;7667;51.232;17.110;2023-02-28T14:52:26;9.53;;;5.77;;
15132;SDS011;7667;51.232;17.110;2023-02-28T14:54:59;10.00;;;7.23;;
15132;SDS011;7667;51.232;17.110;2023-02-28T14:57:38;6.80;;;5.33;;
15132;SDS011;7667;51.232;17.110;2023-02-28T15:00:16;7.10;;;5.60;;
15132;SDS011;7667;51.232;17.110;2023-02-28T15:02:58;7.10;;;5.40;;
15132;SDS011;7667;51.232;17.110;2023-02-28T15:05:28;8.53;;;7.00;;
15132;SDS011;7667;51.232;17.110;2023-02-28T15:08:02;12.93;;;8.93;;
15132;SDS011;7667;51.232;17.110;2023-02-28T15:11:25;19.50;;;10.30;;
15132;SDS011;7667;51.232;17.110;2023-02-28T15:16:18;9.63;;;6.93;;
15132;SDS011;7667;51.232;17.110;2023-02-28T15:26:54;10.20;;;6.37;;
15132;SDS011;7667;51.232;17.110;2023-02-28T15:29:25;12.10;;;7.40;;
15132;SDS011;7667;51.232;17.110;2023-02-28T15:32:06;10.33;;;7.57;;
15132;SDS011;7667;51.232;17.110;2023-02-28T15:34:36;12.17;;;9.23;;
15132;SDS011;7667;51.232;17.110;2023-02-28T15:39:55;17.33;;;12.03;;
15132;SDS011;7667;51.232;17.110;2023-02-28T15:42:27;16.47;;;12.57;;
15132;SDS011;7667;51.232;17.110;2023-02-28T15:44:57;13.93;;;11.20;;
15132;SDS011;7667;51.232;17.110;2023-02-28T15:47:27;15.60;;;11.87;;
15132;SDS011;7667;51.232;17.110;2023-02-28T15:49:57;13.97;;;11.50;;
15132;SDS011;7667;51.232;17.110;2023-02-28T15:52:45;18.10;;;10.27;;
15132;SDS011;7667;51.232;17.110;2023-02-28T15:55:28;18.17;;;10.40;;
15132;SDS011;7667;51.232;17.110;2023-02-28T15:57:57;13.30;;;9.30;;
15132;SDS011;7667;51.232;17.110;2023-02-28T16:00:29;17.27;;;12.17;;
15132;SDS011;7667;51.232;17.110;2023-02-28T16:02:59;22.07;;;14.53;;
15132;SDS011;7667;51.232;17.110;2023-02-28T16:05:28;19.70;;;14.00;;
15132;SDS011;7667;51.232;17.110;2023-02-28T16:07:59;21.33;;;15.63;;
15132;SDS011;7667;51.232;17.110;2023-02-28T16:10:38;19.73;;;14.80;;
15132;SDS011;7667;51.232;17.110;2023-02-28T16:13:05;33.07;;;21.97;;
15132;SDS011;7667;51.232;17.110;2023-02-28T16:15:39;23.80;;;17.37;;
15132;SDS011;7667;51.232;17.110;2023-02-28T16:18:13;24.37;;;17.53;;
15132;SDS011;7667;51.232;17.110;2023-02-28T16:20:40;25.30;;;17.67;;
15132;SDS011;7667;51.232;17.110;2023-02-28T16:23:08;60.80;;;32.23;;
15132;SDS011;7667;51.232;17.110;2023-02-28T16:25:39;88.80;;;38.57;;
15132;SDS011;7667;51.232;17.110;2023-02-28T16:28:12;95.97;;;39.77;;
15132;SDS011;7667;51.232;17.110;2023-02-28T16:31:05;26.63;;;19.27;;
15132;SDS011;7667;51.232;17.110;2023-02-28T16:33:34;22.10;;;18.80;;
15132;SDS011;7667;51.232;17.110;2023-02-28T16:36:01;32.07;;;24.20;;
15132;SDS011;7667;51.232;17.110;2023-02-28T16:38:29;28.97;;;20.73;;
15132;SDS011;7667;51.232;17.110;2023-02-28T16:40:57;22.00;;;17.90;;
15132;SDS011;7667;51.232;17.110;2023-02-28T16:43:26;19.33;;;14.77;;
15132;SDS011;7667;51.232;17.110;2023-02-28T16:45:58;19.23;;;14.60;;
15132;SDS011;7667;51.232;17.110;2023-02-28T16:48:27;28.00;;;14.90;;
15132;SDS011;7667;51.232;17.110;2023-02-28T16:50:54;18.10;;;14.27;;
15132;SDS011;7667;51.232;17.110;2023-02-28T16:53:22;18.77;;;14.57;;
15132;SDS011;7667;51.232;17.110;2023-02-28T16:55:49;27.07;;;19.63;;
15132;SDS011;7667;51.232;17.110;2023-02-28T16:58:17;48.13;;;32.50;;
15132;SDS011;7667;51.232;17.110;2023-02-28T17:00:47;61.07;;;41.33;;
15132;SDS011;7667;51.232;17.110;2023-02-28T17:03:26;77.47;;;55.90;;
15132;SDS011;7667;51.232;17.110;2023-02-28T17:05:59;69.47;;;47.87;;
15132;SDS011;7667;51.232;17.110;2023-02-28T17:08:27;71.67;;;52.43;;
15132;SDS011;7667;51.232;17.110;2023-02-28T17:10:59;108.00;;;76.47;;
15132;SDS011;7667;51.232;17.110;2023-02-28T17:13:28;111.57;;;78.77;;
15132;SDS011;7667;51.232;17.110;2023-02-28T17:15:55;91.40;;;66.00;;
15132;SDS011;7667;51.232;17.110;2023-02-28T17:18:23;68.10;;;53.33;;
15132;SDS011;7667;51.232;17.110;2023-02-28T17:20:50;58.13;;;46.73;;
15132;SDS011;7667;51.232;17.110;2023-02-28T17:23:18;58.00;;;47.77;;
15132;SDS011;7667;51.232;17.110;2023-02-28T17:25:45;38.63;;;30.20;;
15132;SDS011;7667;51.232;17.110;2023-02-28T17:28:23;40.90;;;29.97;;
15132;SDS011;7667;51.232;17.110;2023-02-28T17:30:51;56.13;;;42.30;;